Time;durP1;ratioP1;P1;durP2;ratioP2;P2;SDS_P1;SDS_P2;PMS_P1;PMS_P2;Temp;Humidity;BMP_temperature;BMP_pressure;BME280_temperature;BME280_humidity;BME280_pressure;Samples;Min_cycle;Max_cycle;Signal;HPM_P1;HPM_P2
2024/01/23 00:00:14;;;;;;;9.37;3.57;;;6.30;99.90;;;;;;5044881;28;20455;-60
2024/01/23 00:02:40;;;;;;;8.37;2.87;;;6.20;99.90;;;;;;5051797;28;20430;-60
2024/01/23 00:05:06;;;;;;;7.30;3.43;;;6.30;99.90;;;;;;5038785;28;20398;-59
2024/01/23 00:07:32;;;;;;;6.63;2.93;;;6.30;99.90;;;;;;5036631;28;20589;-60
2024/01/23 00:09:57;;;;;;;7.87;2.90;;;6.40;99.90;;;;;;5054645;28;20411;-59
2024/01/23 00:12:23;;;;;;;4.20;2.97;;;6.40;99.90;;;;;;5049769;28;20164;-60
2024/01/23 00:14:48;;;;;;;5.77;4.37;;;6.50;99.90;;;;;;5039991;28;20640;-60
2024/01/23 00:17:15;;;;;;;6.13;2.57;;;6.40;99.90;;;;;;5053036;28;20279;-61
2024/01/23 00:19:40;;;;;;;12.50;4.20;;;6.50;99.90;;;;;;5054163;28;20221;-60
2024/01/23 00:22:06;;;;;;;7.87;2.87;;;6.50;99.90;;;;;;5045350;28;20875;-60
2024/01/23 00:24:31;;;;;;;4.90;3.17;;;6.50;99.90;;;;;;5040284;28;20185;-60
2024/01/23 00:26:57;;;;;;;9.00;2.90;;;6.50;99.90;;;;;;5039563;28;20235;-61
2024/01/23 00:29:22;;;;;;;6.57;2.50;;;6.50;99.90;;;;;;5036719;28;20182;-60
2024/01/23 00:31:48;;;;;;;5.03;2.93;;;6.70;99.90;;;;;;5046254;28;20172;-60
2024/01/23 00:34:14;;;;;;;8.50;2.50;;;6.70;99.90;;;;;;5038814;28;20938;-59
2024/01/23 00:36:41;;;;;;;13.27;2.23;;;6.70;99.90;;;;;;5039966;28;20204;-62
2024/01/23 00:39:06;;;;;;;3.00;2.30;;;6.70;99.90;;;;;;5039478;28;20283;-59
2024/01/23 00:41:34;;;;;;;8.70;2.30;;;6.80;99.90;;;;;;5047047;28;20550;-58
2024/01/23 00:44:00;;;;;;;7.87;3.10;;;6.80;99.90;;;;;;5040833;28;20558;-59
2024/01/23 00:46:25;;;;;;;10.83;3.30;;;6.90;99.90;;;;;;5043511;28;20420;-60
2024/01/23 00:48:51;;;;;;;9.73;2.40;;;6.90;99.90;;;;;;5057161;28;20659;-59
2024/01/23 00:51:16;;;;;;;8.80;2.53;;;6.90;99.90;;;;;;5040253;28;20180;-59
2024/01/23 00:53:42;;;;;;;6.13;2.13;;;6.80;99.90;;;;;;5037081;28;20179;-59
2024/01/23 00:56:08;;;;;;;9.17;2.47;;;6.70;99.90;;;;;;5051363;28;20184;-59
2024/01/23 00:58:33;;;;;;;3.50;2.37;;;6.70;99.90;;;;;;5051314;28;20300;-59
2024/01/23 01:00:59;;;;;;;5.20;2.13;;;6.60;99.90;;;;;;5035125;28;20721;-60
2024/01/23 01:03:24;;;;;;;4.97;2.13;;;6.50;99.90;;;;;;5038777;28;20177;-60
2024/01/23 01:05:50;;;;;;;8.10;2.33;;;6.40;99.90;;;;;;5034482;28;20181;-63
2024/01/23 01:08:15;;;;;;;7.20;1.87;;;6.40;99.90;;;;;;5039698;28;20193;-60
2024/01/23 01:10:41;;;;;;;4.43;3.13;;;6.40;99.90;;;;;;5041517;28;20711;-58
2024/01/23 01:13:07;;;;;;;8.53;1.73;;;6.40;99.90;;;;;;5034490;28;20260;-60
2024/01/23 01:15:32;;;;;;;4.53;2.33;;;6.30;99.90;;;;;;5042200;28;20271;-57
2024/01/23 01:17:58;;;;;;;5.60;2.07;;;6.20;99.90;;;;;;5039304;28;20203;-60
2024/01/23 01:20:24;;;;;;;3.70;2.10;;;6.10;99.90;;;;;;5039850;28;20632;-59
2024/01/23 01:22:50;;;;;;;14.07;2.87;;;6.00;99.90;;;;;;5041167;28;20205;-58
2024/01/23 01:25:16;;;;;;;5.37;1.80;;;6.00;99.90;;;;;;5040617;28;20576;-59
2024/01/23 01:27:41;;;;;;;5.17;2.60;;;6.00;99.90;;;;;;5041394;28;20435;-60
2024/01/23 01:30:08;;;;;;;2.13;1.50;;;5.90;99.90;;;;;;5054376;28;20233;-59
2024/01/23 01:32:33;;;;;;;3.70;2.17;;;5.80;99.90;;;;;;5044276;28;20180;-60
2024/01/23 01:34:59;;;;;;;5.43;1.90;;;5.80;99.90;;;;;;5035100;28;20477;-59
2024/01/23 01:37:25;;;;;;;7.83;2.10;;;5.80;99.90;;;;;;5043462;28;20571;-60
2024/01/23 01:39:50;;;;;;;3.27;2.10;;;5.80;99.90;;;;;;5045999;28;20179;-60
2024/01/23 01:42:16;;;;;;;5.90;2.20;;;5.70;99.90;;;;;;5039709;28;20807;-60
2024/01/23 01:44:42;;;;;;;5.03;1.80;;;5.70;99.90;;;;;;5038608;28;20176;-60
2024/01/23 01:47:09;;;;;;;6.63;1.83;;;5.70;99.90;;;;;;5036168;28;20187;-60
2024/01/23 01:49:35;;;;;;;5.20;2.00;;;5.70;99.90;;;;;;5051141;28;20187;-60
2024/01/23 01:52:01;;;;;;;1.93;1.70;;;5.70;99.90;;;;;;5040756;28;20419;-60
2024/01/23 01:54:29;;;;;;;4.20;1.93;;;5.60;99.90;;;;;;5050434;28;20939;-59
2024/01/23 01:56:56;;;;;;;3.57;1.50;;;5.60;99.90;;;;;;5052616;28;20432;-60
2024/01/23 01:59:21;;;;;;;5.77;2.43;;;5.50;99.90;;;;;;5041319;28;20427;-60
2024/01/23 02:01:47;;;;;;;7.30;2.17;;;5.50;99.90;;;;;;5041975;28;20460;-60
2024/01/23 02:04:14;;;;;;;2.73;2.07;;;5.50;99.90;;;;;;5043678;28;20208;-60
2024/01/23 02:06:40;;;;;;;4.73;1.93;;;5.50;99.90;;;;;;5037606;28;20517;-59
2024/01/23 02:09:06;;;;;;;4.10;2.07;;;5.60;99.90;;;;;;5050925;28;20446;-59
2024/01/23 02:11:32;;;;;;;6.23;2.17;;;5.60;99.90;;;;;;5036858;28;20909;-60
2024/01/23 02:13:58;;;;;;;4.20;2.30;;;5.60;99.90;;;;;;5046412;28;20225;-59
2024/01/23 02:16:23;;;;;;;3.33;1.70;;;5.60;99.90;;;;;;5044268;28;20415;-57
2024/01/23 02:18:49;;;;;;;2.53;1.57;;;5.60;99.90;;;;;;5037391;28;20191;-58
2024/01/23 02:21:15;;;;;;;5.93;1.80;;;5.60;99.90;;;;;;5040253;28;20240;-60
2024/01/23 02:23:42;;;;;;;5.80;2.50;;;5.60;99.90;;;;;;5045366;28;20718;-59
2024/01/23 02:26:07;;;;;;;5.23;1.50;;;5.50;99.90;;;;;;5045869;28;20753;-59
2024/01/23 02:28:33;;;;;;;4.03;2.47;;;5.50;99.90;;;;;;5044625;28;20495;-61
2024/01/23 02:30:59;;;;;;;5.90;3.00;;;5.50;99.90;;;;;;5046570;28;20229;-59
2024/01/23 02:33:24;;;;;;;2.27;1.60;;;5.40;99.90;;;;;;5054967;28;20191;-58
2024/01/23 02:35:50;;;;;;;7.27;2.50;;;5.40;99.90;;;;;;5048996;28;20716;-59
2024/01/23 02:38:16;;;;;;;3.90;2.10;;;5.50;99.90;;;;;;5041450;28;20202;-58
2024/01/23 02:40:41;;;;;;;7.27;2.63;;;5.40;99.90;;;;;;5039498;28;20207;-60
2024/01/23 02:43:07;;;;;;;4.60;1.80;;;5.40;99.90;;;;;;5038473;28;20175;-63
2024/01/23 02:45:33;;;;;;;5.60;2.30;;;5.40;99.90;;;;;;5040410;28;20185;-60
2024/01/23 02:47:59;;;;;;;5.10;1.80;;;5.40;99.90;;;;;;5037505;28;20437;-57
2024/01/23 02:50:26;;;;;;;4.33;1.67;;;5.50;99.90;;;;;;5035570;28;20248;-60
2024/01/23 02:52:52;;;;;;;3.83;1.80;;;5.50;99.90;;;;;;5033053;28;20519;-59
2024/01/23 02:55:18;;;;;;;2.80;2.10;;;5.50;99.90;;;;;;5038565;28;20480;-59
2024/01/23 02:57:43;;;;;;;2.50;1.80;;;5.50;99.90;;;;;;5035283;28;20212;-59
2024/01/23 03:00:09;;;;;;;3.50;2.07;;;5.50;99.90;;;;;;5045628;28;20178;-59
2024/01/23 03:02:35;;;;;;;2.97;2.33;;;5.50;99.90;;;;;;5045671;28;20170;-60
2024/01/23 03:05:01;;;;;;;6.43;2.00;;;5.50;99.90;;;;;;5037265;28;20925;-58
2024/01/23 03:07:26;;;;;;;4.10;2.00;;;5.60;99.90;;;;;;5040881;28;20500;-59
2024/01/23 03:09:52;;;;;;;3.57;1.90;;;5.60;99.90;;;;;;5051792;28;20228;-60
2024/01/23 03:12:20;;;;;;;8.77;2.10;;;5.60;99.90;;;;;;5037393;28;20187;-59
2024/01/23 03:14:46;;;;;;;3.20;2.40;;;5.60;99.90;;;;;;5045505;28;20425;-59
2024/01/23 03:17:13;;;;;;;7.57;2.50;;;5.70;99.90;;;;;;5042178;28;20469;-59
2024/01/23 03:19:40;;;;;;;3.27;1.63;;;5.80;99.90;;;;;;5040434;28;20889;-60
2024/01/23 03:22:06;;;;;;;4.20;1.60;;;5.80;99.90;;;;;;5057242;28;20458;-59
2024/01/23 03:24:32;;;;;;;5.60;1.70;;;5.80;99.90;;;;;;5039839;28;20423;-58
2024/01/23 03:26:58;;;;;;;4.13;1.87;;;5.80;99.90;;;;;;5032414;28;20498;-60
2024/01/23 03:29:25;;;;;;;3.13;1.57;;;5.80;99.90;;;;;;5037526;28;20779;-60
2024/01/23 03:31:51;;;;;;;2.93;1.80;;;5.80;99.90;;;;;;5038246;28;20425;-59
2024/01/23 03:34:19;;;;;;;4.93;1.87;;;5.80;99.90;;;;;;5041035;28;20476;-57
2024/01/23 03:36:45;;;;;;;4.43;1.97;;;5.70;99.90;;;;;;5044587;28;20483;-59
2024/01/23 03:39:11;;;;;;;4.97;1.80;;;5.70;99.90;;;;;;5040104;28;20442;-59
2024/01/23 03:41:37;;;;;;;2.77;1.67;;;5.70;99.90;;;;;;5042117;28;20797;-59
2024/01/23 03:44:06;;;;;;;3.37;2.13;;;5.60;99.90;;;;;;5035364;28;20469;-59
2024/01/23 03:46:32;;;;;;;2.30;1.47;;;5.60;99.90;;;;;;5040964;28;20175;-59
2024/01/23 03:48:58;;;;;;;5.23;2.17;;;5.60;99.90;;;;;;5046140;28;20488;-58
2024/01/23 03:51:24;;;;;;;6.20;1.73;;;5.60;99.90;;;;;;5036572;28;20783;-58
2024/01/23 03:53:50;;;;;;;3.20;2.30;;;5.50;99.90;;;;;;5043054;28;20171;-59
2024/01/23 03:56:15;;;;;;;3.50;1.80;;;5.50;99.90;;;;;;5036270;28;20219;-59
2024/01/23 03:58:42;;;;;;;14.73;2.20;;;5.50;99.90;;;;;;5032859;28;20449;-60
2024/01/23 04:01:08;;;;;;;3.63;1.60;;;5.50;99.90;;;;;;5041637;28;20194;-57
2024/01/23 04:03:34;;;;;;;4.10;2.13;;;5.50;99.90;;;;;;5052469;28;20423;-59
2024/01/23 04:06:00;;;;;;;4.50;2.10;;;5.50;99.90;;;;;;5038548;28;20548;-60
2024/01/23 04:08:26;;;;;;;4.93;2.63;;;5.50;99.90;;;;;;5039192;28;20972;-60
2024/01/23 04:10:51;;;;;;;3.70;1.90;;;5.40;99.90;;;;;;5040911;28;20414;-60
2024/01/23 04:13:17;;;;;;;4.47;2.03;;;5.40;99.90;;;;;;5030629;28;20263;-59
2024/01/23 04:15:43;;;;;;;4.00;1.20;;;5.40;99.90;;;;;;5041091;28;20179;-60
2024/01/23 04:18:08;;;;;;;4.90;1.53;;;5.30;99.90;;;;;;5046213;28;20202;-60
2024/01/23 04:20:34;;;;;;;2.87;1.80;;;5.30;99.90;;;;;;5036165;28;20700;-59
2024/01/23 04:22:59;;;;;;;2.30;1.67;;;5.30;99.90;;;;;;5048288;28;20175;-59
2024/01/23 04:25:25;;;;;;;5.80;1.97;;;5.20;99.90;;;;;;5043308;28;20171;-60
2024/01/23 04:27:52;;;;;;;5.87;2.27;;;5.30;99.90;;;;;;5045817;28;20194;-60
2024/01/23 04:30:19;;;;;;;6.87;2.23;;;5.20;99.90;;;;;;5034646;28;20630;-60
2024/01/23 04:32:45;;;;;;;3.10;1.63;;;5.30;99.90;;;;;;5044427;28;20409;-62
2024/01/23 04:35:11;;;;;;;4.10;2.00;;;5.30;99.90;;;;;;5054969;28;20467;-60
2024/01/23 04:37:37;;;;;;;4.50;2.60;;;5.40;99.90;;;;;;5039521;28;20430;-59
2024/01/23 04:40:07;;;;;;;5.73;2.77;;;5.40;99.90;;;;;;5039627;28;20421;-61
2024/01/23 04:42:33;;;;;;;3.60;1.57;;;5.40;99.90;;;;;;5041895;28;20179;-61
2024/01/23 04:44:58;;;;;;;6.10;2.00;;;5.50;99.90;;;;;;5044814;28;20849;-60
2024/01/23 04:47:24;;;;;;;6.80;2.33;;;5.40;99.90;;;;;;5043148;28;20439;-58
2024/01/23 04:49:50;;;;;;;9.63;2.53;;;5.40;99.90;;;;;;5040195;28;20416;-60
2024/01/23 04:52:15;;;;;;;5.77;3.03;;;5.40;99.90;;;;;;5050923;28;20175;-60
2024/01/23 04:54:41;;;;;;;6.80;2.20;;;5.40;99.90;;;;;;5041186;28;20187;-60
2024/01/23 04:57:07;;;;;;;6.00;2.60;;;5.40;99.90;;;;;;5041906;28;20175;-59
2024/01/23 04:59:32;;;;;;;3.77;2.10;;;5.40;99.90;;;;;;5035675;28;20171;-60
2024/01/23 05:01:58;;;;;;;3.23;2.63;;;5.40;99.90;;;;;;5046649;28;20565;-61
2024/01/23 05:04:24;;;;;;;3.30;2.27;;;5.40;99.90;;;;;;5043103;28;20164;-59
2024/01/23 05:06:49;;;;;;;5.90;2.70;;;5.50;99.90;;;;;;5037993;28;20167;-59
2024/01/23 05:09:15;;;;;;;8.93;2.60;;;5.50;99.90;;;;;;5052851;28;20249;-60
2024/01/23 05:11:40;;;;;;;4.33;2.50;;;5.50;99.90;;;;;;5041426;28;20733;-59
2024/01/23 05:14:06;;;;;;;4.80;2.63;;;5.50;99.90;;;;;;5043255;28;20195;-59
2024/01/23 05:16:32;;;;;;;2.53;2.03;;;5.50;99.90;;;;;;5049507;28;20253;-60
2024/01/23 05:18:58;;;;;;;3.33;2.30;;;5.50;99.90;;;;;;5042674;28;20667;-58
2024/01/23 05:21:24;;;;;;;4.60;1.80;;;5.50;99.90;;;;;;5038403;28;20199;-59
2024/01/23 05:23:49;;;;;;;3.83;2.30;;;5.50;99.90;;;;;;5049800;28;20787;-61
2024/01/23 05:26:15;;;;;;;10.33;2.47;;;5.50;99.90;;;;;;5037661;28;20180;-60
2024/01/23 05:28:41;;;;;;;5.83;2.00;;;5.50;99.90;;;;;;5052631;28;20728;-59
2024/01/23 05:31:06;;;;;;;5.93;2.23;;;5.50;99.90;;;;;;5034884;28;20182;-59
2024/01/23 05:33:32;;;;;;;8.00;2.70;;;5.50;99.90;;;;;;5054030;28;20671;-59
2024/01/23 05:35:57;;;;;;;13.63;3.23;;;5.40;99.90;;;;;;5054315;28;20178;-60
2024/01/23 05:38:23;;;;;;;6.90;2.70;;;5.30;99.90;;;;;;5044018;28;20195;-60
2024/01/23 05:40:49;;;;;;;6.53;2.27;;;5.20;99.90;;;;;;5042712;28;20657;-60
2024/01/23 05:43:14;;;;;;;3.53;3.23;;;5.20;99.90;;;;;;5045113;28;20258;-59
2024/01/23 05:45:40;;;;;;;2.67;1.47;;;5.10;99.90;;;;;;5039331;28;20590;-60
2024/01/23 05:48:06;;;;;;;3.80;2.00;;;5.00;99.90;;;;;;5042591;28;20202;-62
2024/01/23 05:50:32;;;;;;;5.93;2.40;;;5.00;99.90;;;;;;5041442;28;20179;-58
2024/01/23 05:52:57;;;;;;;4.70;1.80;;;5.00;99.90;;;;;;5035617;28;20928;-57
2024/01/23 05:55:23;;;;;;;6.80;2.63;;;5.00;99.90;;;;;;5048113;28;20175;-61
2024/01/23 05:57:49;;;;;;;8.13;1.93;;;5.00;99.90;;;;;;5052279;28;20206;-59
2024/01/23 06:00:15;;;;;;;8.23;2.90;;;4.90;99.90;;;;;;5045715;28;20199;-60
2024/01/23 06:02:41;;;;;;;3.60;2.53;;;4.80;99.90;;;;;;5045587;28;20203;-58
2024/01/23 06:05:08;;;;;;;3.03;1.67;;;4.90;99.90;;;;;;5044445;28;20759;-60
2024/01/23 06:07:38;;;;;;;9.47;3.50;;;4.90;99.90;;;;;;5058620;28;20427;-59
2024/01/23 06:10:05;;;;;;;7.17;2.03;;;4.90;99.90;;;;;;5042348;28;20953;-59
2024/01/23 06:12:30;;;;;;;5.13;2.50;;;4.90;99.90;;;;;;5043510;28;20553;-61
2024/01/23 06:14:56;;;;;;;4.90;2.00;;;4.90;99.90;;;;;;5041105;28;20880;-59
2024/01/23 06:17:21;;;;;;;3.90;1.73;;;5.00;99.90;;;;;;5040041;28;20238;-59
2024/01/23 06:19:47;;;;;;;8.43;2.43;;;5.00;99.90;;;;;;5038762;28;20167;-60
2024/01/23 06:22:14;;;;;;;8.30;1.70;;;5.00;99.90;;;;;;5054600;28;20194;-59
2024/01/23 06:24:39;;;;;;;4.20;1.90;;;5.20;99.90;;;;;;5047884;28;20168;-61
2024/01/23 06:27:05;;;;;;;10.03;2.20;;;5.20;99.90;;;;;;5046397;28;20971;-59
2024/01/23 06:29:31;;;;;;;2.93;2.10;;;5.30;99.90;;;;;;5051639;28;20250;-58
2024/01/23 06:31:58;;;;;;;15.73;2.40;;;5.40;99.90;;;;;;5041940;28;20172;-59
2024/01/23 06:34:26;;;;;;;8.87;2.63;;;5.40;99.90;;;;;;5051803;28;20203;-60
2024/01/23 06:36:52;;;;;;;3.50;2.30;;;5.40;99.90;;;;;;5043485;28;20417;-60
2024/01/23 06:39:18;;;;;;;9.73;2.40;;;5.40;99.90;;;;;;5061861;28;20497;-60
2024/01/23 06:41:49;;;;;;;9.47;2.43;;;5.40;99.90;;;;;;5045927;28;20196;-59
2024/01/23 06:44:14;;;;;;;4.77;2.27;;;5.40;99.90;;;;;;5043462;28;20504;-60
2024/01/23 06:46:40;;;;;;;8.03;2.17;;;5.50;99.90;;;;;;5042512;28;20404;-60
2024/01/23 06:49:05;;;;;;;3.13;2.20;;;5.50;99.90;;;;;;5037818;28;20232;-57
2024/01/23 06:51:31;;;;;;;12.70;2.73;;;5.50;99.90;;;;;;5041105;28;20176;-58
2024/01/23 06:53:57;;;;;;;5.17;1.97;;;5.50;99.90;;;;;;5039701;28;20206;-60
2024/01/23 06:56:22;;;;;;;11.90;2.30;;;5.50;99.90;;;;;;5045949;28;20262;-58
2024/01/23 06:58:48;;;;;;;6.13;2.43;;;5.60;99.90;;;;;;5037638;28;20211;-58
2024/01/23 07:01:13;;;;;;;8.57;2.53;;;5.60;99.90;;;;;;5040445;28;20238;-59
2024/01/23 07:03:39;;;;;;;7.13;2.20;;;5.60;99.90;;;;;;5032597;28;20173;-60
2024/01/23 07:06:05;;;;;;;7.90;2.00;;;5.70;99.90;;;;;;5055457;28;20387;-60
2024/01/23 07:08:30;;;;;;;6.67;2.90;;;5.70;99.90;;;;;;5046929;28;20227;-60
2024/01/23 07:10:56;;;;;;;11.03;2.67;;;5.70;99.90;;;;;;5052073;28;20409;-60
2024/01/23 07:13:21;;;;;;;9.10;2.80;;;5.80;99.90;;;;;;5045865;28;20256;-60
2024/01/23 07:15:47;;;;;;;15.70;3.27;;;5.80;99.90;;;;;;5036887;28;20168;-60
2024/01/23 07:18:13;;;;;;;7.43;2.37;;;5.90;99.90;;;;;;5039250;28;20195;-60
2024/01/23 07:20:38;;;;;;;6.40;2.53;;;5.90;99.90;;;;;;5037331;28;20202;-60
2024/01/23 07:23:04;;;;;;;5.73;2.30;;;5.90;99.90;;;;;;5043217;28;20203;-57
2024/01/23 07:25:30;;;;;;;4.87;1.83;;;6.00;99.90;;;;;;5044885;28;20172;-61
2024/01/23 07:27:56;;;;;;;9.13;2.70;;;6.00;99.90;;;;;;5041818;28;20530;-59
2024/01/23 07:30:21;;;;;;;8.27;3.37;;;6.00;99.90;;;;;;5045230;28;20511;-60
2024/01/23 07:32:47;;;;;;;7.13;2.50;;;6.10;99.90;;;;;;5037627;28;20231;-60
2024/01/23 07:35:14;;;;;;;9.63;2.47;;;6.10;99.90;;;;;;5044002;28;20242;-62
2024/01/23 07:37:39;;;;;;;8.07;2.70;;;6.10;99.90;;;;;;5046473;28;20677;-60
2024/01/23 07:40:05;;;;;;;11.13;3.83;;;6.10;99.90;;;;;;5047096;28;20414;-58
2024/01/23 07:42:32;;;;;;;6.47;2.77;;;6.10;99.90;;;;;;5054689;28;20218;-58
2024/01/23 07:44:57;;;;;;;11.13;3.40;;;6.10;99.90;;;;;;5043072;28;20420;-59
2024/01/23 07:47:23;;;;;;;6.20;2.80;;;6.10;99.90;;;;;;5038646;28;20793;-60
2024/01/23 07:49:48;;;;;;;6.67;2.17;;;6.20;99.90;;;;;;5041727;28;20220;-60
2024/01/23 07:52:18;;;;;;;6.73;3.30;;;6.20;99.90;;;;;;5036760;28;20190;-60
2024/01/23 07:54:44;;;;;;;7.50;3.37;;;6.20;99.90;;;;;;5035584;28;20547;-59
2024/01/23 07:57:09;;;;;;;16.00;5.30;;;6.30;99.90;;;;;;5041385;28;20419;-59
2024/01/23 07:59:35;;;;;;;11.17;3.30;;;6.30;99.90;;;;;;5045815;28;20177;-59
2024/01/23 08:02:00;;;;;;;9.00;2.77;;;6.20;99.90;;;;;;5045593;28;20194;-59
2024/01/23 08:04:26;;;;;;;5.97;2.20;;;6.30;99.90;;;;;;5043624;28;20221;-60
2024/01/23 08:06:54;;;;;;;6.87;3.03;;;6.30;99.90;;;;;;5051416;28;20178;-60
2024/01/23 08:09:20;;;;;;;3.50;2.40;;;6.30;99.90;;;;;;5050068;28;20245;-59
2024/01/23 08:11:49;;;;;;;7.00;3.30;;;6.20;99.90;;;;;;5038252;28;20415;-60
2024/01/23 08:14:20;;;;;;;4.83;2.30;;;6.20;99.90;;;;;;5047360;28;20183;-58
2024/01/23 08:16:50;;;;;;;5.67;3.10;;;6.30;99.90;;;;;;5045106;28;20780;-61
2024/01/23 08:19:19;;;;;;;15.57;3.53;;;6.30;99.90;;;;;;5056112;28;20876;-60
2024/01/23 08:21:45;;;;;;;8.30;2.80;;;6.40;99.90;;;;;;5042105;28;20499;-59
2024/01/23 08:24:11;;;;;;;6.40;2.73;;;6.50;99.90;;;;;;5036571;28;20434;-58
2024/01/23 08:26:40;;;;;;;7.20;2.73;;;6.50;99.90;;;;;;5042442;28;20815;-61
2024/01/23 08:29:07;;;;;;;4.97;2.13;;;6.50;99.90;;;;;;5043583;28;20198;-62
2024/01/23 08:31:33;;;;;;;7.10;2.40;;;6.60;99.90;;;;;;5049198;28;20405;-59
2024/01/23 08:33:59;;;;;;;8.20;2.73;;;6.60;99.90;;;;;;5051057;28;20425;-59
2024/01/23 08:36:24;;;;;;;11.43;3.10;;;6.60;99.90;;;;;;5040028;28;20237;-59
2024/01/23 08:38:50;;;;;;;14.33;3.10;;;6.60;99.90;;;;;;5038806;28;20229;-60
2024/01/23 08:41:15;;;;;;;11.03;2.40;;;6.60;99.90;;;;;;5039896;28;20657;-60
2024/01/23 08:43:41;;;;;;;7.30;2.70;;;6.60;99.90;;;;;;5043364;28;20173;-60
2024/01/23 08:46:07;;;;;;;9.93;2.43;;;6.60;99.90;;;;;;5045817;28;20167;-64
2024/01/23 08:48:33;;;;;;;4.97;2.13;;;6.60;99.90;;;;;;5047035;28;20198;-63
2024/01/23 08:50:58;;;;;;;8.90;2.60;;;6.70;99.90;;;;;;5043267;28;20646;-62
2024/01/23 08:53:24;;;;;;;9.13;2.50;;;6.70;99.90;;;;;;5045800;28;20176;-61
2024/01/23 08:55:50;;;;;;;12.90;3.27;;;6.70;99.90;;;;;;5044556;28;20409;-61
2024/01/23 08:58:17;;;;;;;4.57;2.33;;;6.70;99.90;;;;;;5047720;28;20211;-59
2024/01/23 09:00:43;;;;;;;11.17;2.33;;;6.80;99.90;;;;;;5043903;28;20600;-60
2024/01/23 09:03:08;;;;;;;9.00;2.53;;;6.80;99.90;;;;;;5043475;28;20522;-60
2024/01/23 09:05:34;;;;;;;6.60;3.20;;;6.80;99.90;;;;;;5048544;28;20579;-60
2024/01/23 09:07:59;;;;;;;7.40;2.00;;;6.90;99.90;;;;;;5046276;28;20261;-60
2024/01/23 09:10:25;;;;;;;13.17;3.70;;;6.90;99.90;;;;;;5036562;28;20172;-60
2024/01/23 09:12:51;;;;;;;7.53;2.60;;;6.90;99.90;;;;;;5036155;28;20671;-61
2024/01/23 09:15:16;;;;;;;12.10;2.67;;;7.00;99.90;;;;;;5037635;28;20247;-60
2024/01/23 09:17:42;;;;;;;18.33;4.17;;;7.00;99.90;;;;;;5039689;28;20228;-61
2024/01/23 09:20:08;;;;;;;6.10;1.93;;;7.00;99.90;;;;;;5037428;28;20173;-61
2024/01/23 09:22:33;;;;;;;8.17;2.67;;;7.00;99.90;;;;;;5034227;28;20208;-60
2024/01/23 09:25:01;;;;;;;10.93;2.53;;;7.00;99.90;;;;;;5034437;28;20425;-61
2024/01/23 09:27:27;;;;;;;8.20;2.70;;;7.00;99.90;;;;;;5046471;28;20239;-61
2024/01/23 09:29:52;;;;;;;6.40;3.30;;;7.10;99.90;;;;;;5037936;28;20412;-61
2024/01/23 09:32:18;;;;;;;5.80;2.20;;;7.20;99.90;;;;;;5048745;28;20542;-61
2024/01/23 09:34:45;;;;;;;11.00;3.23;;;7.20;99.90;;;;;;5038677;28;20230;-59
2024/01/23 09:37:10;;;;;;;8.23;2.60;;;7.10;99.90;;;;;;5034822;28;20648;-64
2024/01/23 09:39:36;;;;;;;7.73;3.20;;;7.10;99.90;;;;;;5038798;28;20425;-60
2024/01/23 09:42:02;;;;;;;11.20;4.00;;;7.00;99.90;;;;;;5054865;28;20300;-59
2024/01/23 09:44:28;;;;;;;7.97;2.97;;;7.00;99.90;;;;;;5041309;28;20175;-60
2024/01/23 09:46:54;;;;;;;10.87;2.47;;;7.10;99.90;;;;;;5045880;28;20556;-59
2024/01/23 09:49:20;;;;;;;7.50;2.37;;;7.20;99.90;;;;;;5048015;28;20894;-60
2024/01/23 09:51:47;;;;;;;8.87;2.40;;;7.20;99.90;;;;;;5037391;28;20493;-60
2024/01/23 09:54:16;;;;;;;6.30;2.53;;;7.20;99.90;;;;;;5034619;28;20782;-59
2024/01/23 09:56:42;;;;;;;6.90;2.10;;;7.20;99.90;;;;;;5042410;28;20415;-60
2024/01/23 09:59:10;;;;;;;6.50;3.20;;;7.20;99.90;;;;;;5053874;28;20453;-59
2024/01/23 10:01:37;;;;;;;5.43;2.20;;;7.30;99.90;;;;;;5039738;28;20211;-60
2024/01/23 10:04:04;;;;;;;7.80;3.13;;;7.30;99.90;;;;;;5035878;28;20449;-60
2024/01/23 10:06:30;;;;;;;11.60;2.90;;;7.50;99.90;;;;;;5046941;28;20408;-60
2024/01/23 10:08:56;;;;;;;9.40;2.93;;;7.40;99.90;;;;;;5036064;28;20446;-61
2024/01/23 10:11:22;;;;;;;12.17;2.77;;;7.30;99.90;;;;;;5033736;28;20500;-57
2024/01/23 10:13:48;;;;;;;10.90;3.07;;;7.30;99.90;;;;;;5036475;28;20190;-60
2024/01/23 10:16:16;;;;;;;8.63;2.50;;;7.30;99.90;;;;;;5043834;28;20204;-60
2024/01/23 10:18:46;;;;;;;10.43;3.23;;;7.40;99.90;;;;;;5035321;28;20443;-59
2024/01/23 10:21:11;;;;;;;10.43;3.00;;;7.40;99.90;;;;;;5037535;28;20459;-59
2024/01/23 10:23:37;;;;;;;10.27;3.00;;;7.40;99.90;;;;;;5040254;28;20936;-64
2024/01/23 10:26:07;;;;;;;11.40;3.80;;;7.40;99.90;;;;;;5030146;28;20178;-60
2024/01/23 10:28:33;;;;;;;12.27;3.27;;;7.50;99.90;;;;;;5045729;28;20425;-60
2024/01/23 10:31:01;;;;;;;14.77;2.93;;;7.50;99.90;;;;;;5035778;28;20424;-60
2024/01/23 10:33:26;;;;;;;8.93;3.23;;;7.60;99.90;;;;;;5034476;28;20946;-60
2024/01/23 10:35:53;;;;;;;9.30;2.63;;;7.60;99.90;;;;;;5037569;28;20411;-60
2024/01/23 10:38:20;;;;;;;9.67;3.13;;;7.60;99.90;;;;;;5038796;28;20199;-60
2024/01/23 10:40:47;;;;;;;10.53;3.33;;;7.70;99.90;;;;;;5040085;28;20630;-58
2024/01/23 10:43:12;;;;;;;9.63;3.33;;;7.60;99.90;;;;;;5038884;28;20498;-62
2024/01/23 10:45:39;;;;;;;8.30;3.03;;;7.60;99.90;;;;;;5042662;28;20554;-60
2024/01/23 10:48:07;;;;;;;11.53;3.00;;;7.60;99.90;;;;;;5040703;28;20248;-59
2024/01/23 10:50:34;;;;;;;9.47;3.40;;;7.60;99.90;;;;;;5035732;28;20942;-59
2024/01/23 10:53:06;;;;;;;10.27;3.30;;;7.60;99.90;;;;;;5057253;28;20906;-60
2024/01/23 10:55:33;;;;;;;9.83;3.50;;;7.60;99.90;;;;;;5033057;28;20839;-60
2024/01/23 10:58:04;;;;;;;10.07;3.80;;;7.60;99.90;;;;;;5039889;28;20503;-60
2024/01/23 11:00:32;;;;;;;8.43;2.60;;;7.80;99.90;;;;;;5040660;28;20412;-60
2024/01/23 11:03:05;;;;;;;10.87;3.53;;;7.80;99.90;;;;;;5039199;28;20415;-60
2024/01/23 11:05:48;;;;;;;11.03;3.93;;;7.70;99.90;;;;;;5039770;28;20421;-60
2024/01/23 11:08:22;;;;;;;9.33;3.17;;;7.80;99.90;;;;;;5036132;28;20437;-60
2024/01/23 11:11:27;;;;;;;10.20;2.90;;;7.70;99.90;;;;;;5038715;28;20412;-61
2024/01/23 11:14:00;;;;;;;7.43;3.70;;;7.60;99.90;;;;;;5041531;28;20919;-60
2024/01/23 11:16:28;;;;;;;8.17;2.37;;;7.60;99.90;;;;;;5037486;28;20400;-60
2024/01/23 11:18:54;;;;;;;11.73;3.80;;;7.60;99.90;;;;;;5034883;28;20488;-60
2024/01/23 11:21:22;;;;;;;8.33;3.43;;;7.70;99.90;;;;;;5050119;28;20488;-60
2024/01/23 11:23:58;;;;;;;17.47;3.90;;;7.70;99.90;;;;;;5036488;28;20423;-60
2024/01/23 11:26:26;;;;;;;9.73;2.90;;;7.70;99.90;;;;;;5039670;28;20423;-60
2024/01/23 11:29:00;;;;;;;5.30;2.10;;;7.70;99.90;;;;;;5036497;28;20429;-59
2024/01/23 11:31:28;;;;;;;14.47;4.20;;;7.60;99.90;;;;;;5038115;28;21048;-59
2024/01/23 11:34:22;;;;;;;12.13;4.27;;;7.60;99.90;;;;;;5035228;28;20570;-59
2024/01/23 11:36:48;;;;;;;11.90;3.30;;;7.60;99.90;;;;;;5036214;28;20414;-59
2024/01/23 11:39:22;;;;;;;7.33;2.70;;;7.60;99.90;;;;;;5035328;28;20915;-60
2024/01/23 11:41:49;;;;;;;6.43;2.13;;;7.80;99.90;;;;;;5040059;28;20201;-60
2024/01/23 11:44:16;;;;;;;11.73;3.20;;;7.80;99.90;;;;;;5033626;28;20435;-60
2024/01/23 11:46:47;;;;;;;12.40;4.23;;;7.90;99.90;;;;;;5035609;28;20433;-60
2024/01/23 11:49:13;;;;;;;19.23;3.40;;;8.00;99.90;;;;;;5037477;28;20490;-59
2024/01/23 11:51:38;;;;;;;5.87;2.50;;;8.10;99.90;;;;;;5031898;28;20806;-60
2024/01/23 11:54:11;;;;;;;12.17;4.30;;;8.20;99.90;;;;;;5036658;28;20638;-62
2024/01/23 11:56:38;;;;;;;6.50;2.90;;;8.20;99.90;;;;;;5037415;28;20181;-60
2024/01/23 11:59:04;;;;;;;11.33;2.93;;;8.10;99.90;;;;;;5034787;28;20481;-60
2024/01/23 12:01:31;;;;;;;9.50;3.10;;;8.10;99.90;;;;;;5034582;28;20454;-60
2024/01/23 12:03:57;;;;;;;11.27;4.07;;;8.10;99.90;;;;;;5037485;28;20179;-60
2024/01/23 12:06:25;;;;;;;10.73;4.60;;;8.10;99.90;;;;;;5039731;28;20487;-60
2024/01/23 12:08:51;;;;;;;8.40;2.33;;;8.00;99.90;;;;;;5037082;28;20438;-60
2024/01/23 12:11:17;;;;;;;9.67;3.00;;;8.10;99.90;;;;;;5038289;28;20467;-62
2024/01/23 12:13:50;;;;;;;6.83;2.87;;;8.10;99.90;;;;;;5035331;28;20432;-62
2024/01/23 12:16:17;;;;;;;8.87;3.30;;;8.10;99.90;;;;;;5035092;28;20434;-59
2024/01/23 12:18:44;;;;;;;10.03;3.50;;;8.00;99.90;;;;;;5033690;28;20797;-62
2024/01/23 12:21:11;;;;;;;7.83;2.90;;;8.10;99.90;;;;;;5037440;28;20489;-59
2024/01/23 12:23:37;;;;;;;15.83;3.60;;;8.10;99.90;;;;;;5039426;28;20498;-60
2024/01/23 12:26:04;;;;;;;14.43;4.23;;;8.00;99.90;;;;;;5040097;28;20503;-60
2024/01/23 12:28:32;;;;;;;17.87;4.10;;;8.10;99.90;;;;;;5039164;28;20194;-63
2024/01/23 12:30:58;;;;;;;9.10;4.20;;;8.00;99.90;;;;;;5035002;28;20416;-60
2024/01/23 12:33:25;;;;;;;13.90;4.07;;;8.10;99.90;;;;;;5038430;28;20788;-61
2024/01/23 12:35:52;;;;;;;15.87;3.43;;;8.10;99.90;;;;;;5034294;28;20852;-61
2024/01/23 12:38:19;;;;;;;7.10;2.53;;;8.10;99.90;;;;;;5039294;28;20429;-60
2024/01/23 12:40:45;;;;;;;13.73;3.40;;;8.20;99.90;;;;;;5038109;28;21101;-59
2024/01/23 12:43:12;;;;;;;15.87;5.10;;;8.30;99.90;;;;;;5048257;28;20463;-60
2024/01/23 12:45:38;;;;;;;8.40;2.93;;;8.30;99.90;;;;;;5042374;28;20413;-60
2024/01/23 12:48:05;;;;;;;5.80;2.60;;;8.30;99.90;;;;;;5037165;28;20993;-59
2024/01/23 12:50:30;;;;;;;8.37;3.30;;;8.40;99.90;;;;;;5038128;28;20414;-59